Time;durP1;ratioP1;P1;durP2;ratioP2;P2;SDS_P1;SDS_P2;PMS_P1;PMS_P2;Temp;Humidity;BMP_temperature;BMP_pressure;BME280_temperature;BME280_humidity;BME280_pressure;Samples;Min_cycle;Max_cycle;Signal;HPM_P1;HPM_P2
2024/01/03 00:01:08;;;;;;;5.38;1.00;;;28.20;99.90;;;;;;5105619;28;20218;-78
2024/01/03 00:03:39;;;;;;;5.53;1.10;;;28.10;99.90;;;;;;5107100;28;20226;-79
2024/01/03 00:06:11;;;;;;;2.58;0.88;;;28.10;99.90;;;;;;5108690;28;20297;-77
2024/01/03 00:08:42;;;;;;;3.45;0.90;;;28.20;99.90;;;;;;5100425;28;20210;-77
2024/01/03 00:11:20;;;;;;;5.07;0.90;;;28.20;99.90;;;;;;5109520;28;20704;-77
2024/01/03 00:14:25;;;;;;;4.60;0.80;;;28.20;99.90;;;;;;5105374;28;20187;-77
2024/01/03 00:17:07;;;;;;;3.13;0.90;;;28.30;99.90;;;;;;5101704;28;20194;-77
2024/01/03 00:19:39;;;;;;;3.15;0.85;;;28.30;99.90;;;;;;5108242;28;20229;-77
2024/01/03 00:22:13;;;;;;;3.15;0.77;;;28.30;99.90;;;;;;5096236;28;20210;-78
2024/01/03 00:24:49;;;;;;;3.15;1.05;;;28.30;99.90;;;;;;5099021;28;20261;-77
2024/01/03 00:27:21;;;;;;;3.67;0.93;;;28.40;99.90;;;;;;5109860;28;20209;-77
2024/01/03 00:29:56;;;;;;;2.40;0.70;;;28.30;99.90;;;;;;5109919;28;20215;-77
2024/01/03 00:32:29;;;;;;;2.50;0.80;;;28.40;99.90;;;;;;5104921;28;20625;-77
2024/01/03 00:35:01;;;;;;;2.95;0.70;;;28.40;99.90;;;;;;5111814;28;20564;-77
2024/01/03 00:37:36;;;;;;;3.83;0.90;;;28.50;99.90;;;;;;5114331;27;20299;-77
2024/01/03 00:40:21;;;;;;;2.72;0.75;;;28.50;99.90;;;;;;5109928;28;20256;-79
2024/01/03 00:42:51;;;;;;;6.15;0.98;;;28.40;99.90;;;;;;5107424;28;20588;-78
2024/01/03 00:45:22;;;;;;;5.30;0.93;;;28.50;99.90;;;;;;5113974;27;20226;-79
2024/01/03 00:47:55;;;;;;;1.95;0.60;;;28.50;99.90;;;;;;5100101;27;20210;-79
2024/01/03 00:50:26;;;;;;;4.45;0.85;;;28.50;99.90;;;;;;5108927;27;20214;-77
2024/01/03 00:52:56;;;;;;;4.03;0.95;;;28.50;99.90;;;;;;5113900;28;20209;-78
2024/01/03 00:55:27;;;;;;;4.05;0.93;;;28.60;99.90;;;;;;5113624;28;20255;-78
2024/01/03 00:57:58;;;;;;;4.13;0.80;;;28.60;99.90;;;;;;5116239;28;20191;-78
2024/01/03 01:00:29;;;;;;;3.60;0.90;;;28.60;99.90;;;;;;5114479;28;20665;-78
2024/01/03 01:03:02;;;;;;;2.78;0.80;;;28.70;99.90;;;;;;5109213;28;20207;-77
2024/01/03 01:05:33;;;;;;;6.28;0.93;;;28.70;99.90;;;;;;5106702;28;20218;-78
2024/01/03 01:08:04;;;;;;;3.88;0.90;;;28.80;99.90;;;;;;5113772;28;20547;-76
2024/01/03 01:10:35;;;;;;;2.97;0.80;;;28.70;99.90;;;;;;5099993;28;20209;-76
2024/01/03 01:13:06;;;;;;;3.00;0.88;;;28.70;99.90;;;;;;5113371;28;20202;-77
2024/01/03 01:15:36;;;;;;;3.35;1.00;;;28.70;99.90;;;;;;5112245;28;20215;-76
2024/01/03 01:18:09;;;;;;;4.28;0.90;;;28.70;99.90;;;;;;5111919;27;20223;-77
2024/01/03 01:20:40;;;;;;;3.25;0.90;;;28.70;99.90;;;;;;5113197;28;20212;-77
2024/01/03 01:23:10;;;;;;;4.47;1.00;;;28.70;99.90;;;;;;5113329;28;20204;-77
2024/01/03 01:25:41;;;;;;;4.80;1.00;;;28.80;99.90;;;;;;5107029;28;20229;-76
2024/01/03 01:28:12;;;;;;;3.00;0.88;;;28.80;99.90;;;;;;5108641;27;20194;-76
2024/01/03 01:30:43;;;;;;;3.33;0.77;;;28.80;99.90;;;;;;5111102;28;20572;-77
2024/01/03 01:33:15;;;;;;;2.97;0.80;;;28.80;99.90;;;;;;5111380;28;20649;-77
2024/01/03 01:35:46;;;;;;;5.30;0.90;;;28.80;99.90;;;;;;5103452;28;20225;-78
2024/01/03 01:38:17;;;;;;;5.75;0.93;;;28.80;99.90;;;;;;5109623;28;20198;-77
2024/01/03 01:40:49;;;;;;;4.93;0.85;;;28.90;99.90;;;;;;5115322;28;20210;-78
2024/01/03 01:43:20;;;;;;;3.70;0.88;;;28.80;99.90;;;;;;5127494;28;20190;-77
2024/01/03 01:45:51;;;;;;;4.68;0.90;;;28.80;99.90;;;;;;5117318;28;20229;-77
2024/01/03 01:48:25;;;;;;;5.28;0.95;;;28.70;99.90;;;;;;5105112;28;20210;-78
2024/01/03 01:50:57;;;;;;;4.50;0.88;;;28.70;99.90;;;;;;5107838;28;20194;-78
2024/01/03 01:53:27;;;;;;;9.30;1.45;;;28.80;99.90;;;;;;5109922;28;20202;-79
2024/01/03 01:55:59;;;;;;;3.38;1.00;;;28.90;99.90;;;;;;5107645;28;20681;-79
2024/01/03 01:58:30;;;;;;;3.80;0.77;;;28.90;99.90;;;;;;5107972;28;20641;-79
2024/01/03 02:01:01;;;;;;;3.63;0.95;;;28.90;99.90;;;;;;5112625;28;20216;-79
2024/01/03 02:03:35;;;;;;;3.35;1.00;;;29.00;99.90;;;;;;5109788;27;20206;-77
2024/01/03 02:06:08;;;;;;;5.47;1.02;;;28.90;99.90;;;;;;5115280;27;20668;-77
2024/01/03 02:08:39;;;;;;;5.22;1.00;;;28.90;99.90;;;;;;5107458;28;20191;-77
2024/01/03 02:11:10;;;;;;;2.28;0.60;;;28.80;99.90;;;;;;5109561;28;20195;-77
2024/01/03 02:13:40;;;;;;;3.80;1.13;;;28.80;99.90;;;;;;5106942;27;20565;-77
2024/01/03 02:16:11;;;;;;;5.93;0.93;;;28.90;99.90;;;;;;5106653;28;20225;-78
2024/01/03 02:18:45;;;;;;;5.40;1.20;;;28.90;99.90;;;;;;5107616;28;20262;-77
2024/01/03 02:21:19;;;;;;;4.57;0.90;;;28.90;99.90;;;;;;5111366;28;20242;-78
2024/01/03 02:23:50;;;;;;;3.42;0.98;;;28.80;99.90;;;;;;5108813;28;20215;-77
2024/01/03 02:26:20;;;;;;;4.75;1.02;;;28.70;99.90;;;;;;5100193;28;20229;-78
2024/01/03 02:28:51;;;;;;;5.15;1.10;;;28.60;99.90;;;;;;5091940;28;20199;-78
2024/01/03 02:31:22;;;;;;;6.50;1.08;;;28.80;99.90;;;;;;5123200;28;20219;-78
2024/01/03 02:33:52;;;;;;;3.78;0.90;;;28.80;99.90;;;;;;5112119;28;20203;-78
2024/01/03 02:36:25;;;;;;;3.28;0.80;;;28.90;99.90;;;;;;5111357;27;20198;-78
2024/01/03 02:38:56;;;;;;;3.53;1.08;;;28.90;99.90;;;;;;5109219;28;20201;-78
2024/01/03 02:41:27;;;;;;;4.50;0.93;;;28.90;99.90;;;;;;5109261;28;20212;-78
2024/01/03 02:43:58;;;;;;;3.67;1.00;;;29.00;99.90;;;;;;5109762;28;20190;-78
2024/01/03 02:46:29;;;;;;;3.47;0.80;;;29.00;99.90;;;;;;5110473;28;20221;-77
2024/01/03 02:48:59;;;;;;;5.45;0.82;;;28.90;99.90;;;;;;5108528;28;20210;-78
2024/01/03 02:51:32;;;;;;;4.35;1.20;;;28.90;99.90;;;;;;5098390;28;20568;-78
2024/01/03 02:54:03;;;;;;;5.20;0.90;;;28.90;99.90;;;;;;5114945;27;20209;-78
2024/01/03 02:56:39;;;;;;;5.50;1.10;;;28.70;99.90;;;;;;5108279;28;20218;-78
2024/01/03 02:59:10;;;;;;;7.05;1.20;;;28.70;99.90;;;;;;5107694;28;20198;-78
2024/01/03 03:01:41;;;;;;;6.95;1.02;;;28.60;99.90;;;;;;5110508;28;20524;-78
2024/01/03 03:04:12;;;;;;;2.95;0.90;;;28.60;99.90;;;;;;5103407;28;20219;-80
2024/01/03 03:06:44;;;;;;;6.35;1.17;;;28.70;99.90;;;;;;5104520;28;20222;-78
2024/01/03 03:09:15;;;;;;;6.93;1.02;;;28.80;99.90;;;;;;5106862;28;20702;-78
2024/01/03 03:11:46;;;;;;;5.50;1.02;;;28.70;99.90;;;;;;5106975;27;20622;-78
2024/01/03 03:14:17;;;;;;;5.43;1.25;;;28.80;99.90;;;;;;5111300;28;20204;-78
2024/01/03 03:16:51;;;;;;;4.82;0.95;;;28.70;99.90;;;;;;5110585;28;20203;-80
2024/01/03 03:19:21;;;;;;;5.40;1.00;;;28.80;99.90;;;;;;5111137;28;20242;-78
2024/01/03 03:21:54;;;;;;;5.38;1.15;;;28.60;99.90;;;;;;5099097;28;20676;-78
2024/01/03 03:24:25;;;;;;;4.00;0.98;;;28.70;99.90;;;;;;5104780;28;20198;-79
2024/01/03 03:26:56;;;;;;;5.50;1.20;;;28.70;99.90;;;;;;5094503;28;20719;-78
2024/01/03 03:29:27;;;;;;;6.95;0.95;;;28.60;99.90;;;;;;5109521;28;20201;-78
2024/01/03 03:31:58;;;;;;;10.43;1.23;;;28.70;99.90;;;;;;5108821;28;20187;-78
2024/01/03 03:34:28;;;;;;;4.10;1.02;;;28.60;99.90;;;;;;5110118;28;20208;-79
2024/01/03 03:37:01;;;;;;;6.30;1.48;;;28.80;99.90;;;;;;5099688;28;20190;-79
2024/01/03 03:39:32;;;;;;;4.28;1.33;;;28.70;99.90;;;;;;5112942;28;20289;-78
2024/01/03 03:42:03;;;;;;;4.18;1.10;;;28.70;99.90;;;;;;5107556;28;20225;-77
2024/01/03 03:44:34;;;;;;;5.53;1.20;;;28.60;99.90;;;;;;5108020;27;20197;-77
2024/01/03 03:47:05;;;;;;;3.75;0.85;;;28.50;99.90;;;;;;5092908;28;20226;-78
2024/01/03 03:49:36;;;;;;;8.32;1.58;;;28.60;99.90;;;;;;5104888;28;20190;-77
2024/01/03 03:52:09;;;;;;;4.88;1.10;;;28.50;99.90;;;;;;5116951;28;20660;-79
2024/01/03 03:54:40;;;;;;;4.05;1.10;;;28.50;99.90;;;;;;5110049;28;20203;-77
2024/01/03 03:57:11;;;;;;;5.95;1.00;;;28.40;99.90;;;;;;5105806;28;20207;-76
2024/01/03 03:59:43;;;;;;;4.97;1.00;;;28.20;99.90;;;;;;5101873;28;20320;-76
2024/01/03 04:02:13;;;;;;;5.28;1.20;;;28.10;99.90;;;;;;5110919;28;20680;-76
2024/01/03 04:04:44;;;;;;;7.45;1.10;;;27.80;99.90;;;;;;5102620;28;20194;-76
2024/01/03 04:07:17;;;;;;;7.63;1.40;;;27.90;99.90;;;;;;5108746;28;20224;-77
2024/01/03 04:09:47;;;;;;;4.03;1.02;;;27.80;99.90;;;;;;5096431;28;20199;-77
2024/01/03 04:12:18;;;;;;;8.55;1.38;;;27.50;99.90;;;;;;5098644;28;20187;-77
2024/01/03 04:14:49;;;;;;;4.90;1.20;;;27.40;99.90;;;;;;5110085;28;20618;-77
2024/01/03 04:17:21;;;;;;;5.90;1.20;;;27.40;99.90;;;;;;5110132;28;20214;-77
2024/01/03 04:19:52;;;;;;;6.13;1.13;;;27.30;99.90;;;;;;5106719;28;20258;-77
2024/01/03 04:22:25;;;;;;;7.30;1.40;;;27.20;99.90;;;;;;5108988;28;20199;-77
2024/01/03 04:24:55;;;;;;;6.78;1.45;;;27.10;99.90;;;;;;5108210;28;20667;-77
2024/01/03 04:27:26;;;;;;;8.80;1.50;;;27.10;99.90;;;;;;5110290;28;20205;-77
2024/01/03 04:29:57;;;;;;;6.40;1.30;;;27.10;99.90;;;;;;5105853;28;20199;-77
2024/01/03 04:32:28;;;;;;;8.10;1.35;;;27.00;99.90;;;;;;5099228;28;20617;-76
2024/01/03 04:34:58;;;;;;;7.97;1.35;;;27.00;99.90;;;;;;5095144;28;20683;-77
2024/01/03 04:37:32;;;;;;;7.63;1.40;;;27.00;99.90;;;;;;5101728;28;20198;-77
2024/01/03 04:40:03;;;;;;;3.85;1.08;;;27.00;99.90;;;;;;5108676;28;20198;-77
2024/01/03 04:42:33;;;;;;;8.00;1.70;;;27.00;99.90;;;;;;5108595;28;20198;-78
2024/01/03 04:45:04;;;;;;;11.13;1.80;;;26.90;99.90;;;;;;5095134;28;20191;-78
2024/01/03 04:47:35;;;;;;;5.18;1.30;;;26.90;99.90;;;;;;5110352;28;20285;-78
2024/01/03 04:50:06;;;;;;;5.65;1.50;;;26.80;99.90;;;;;;5098991;28;20561;-78
2024/01/03 04:52:38;;;;;;;9.00;1.50;;;26.70;99.90;;;;;;5111187;28;20191;-77
2024/01/03 04:55:10;;;;;;;9.32;1.70;;;26.70;99.90;;;;;;5113783;28;20571;-77
2024/01/03 04:57:41;;;;;;;5.55;1.27;;;26.60;99.90;;;;;;5113634;28;20198;-78
2024/01/03 05:00:12;;;;;;;7.65;1.20;;;26.70;99.90;;;;;;5112821;28;20736;-78
2024/01/03 05:02:43;;;;;;;7.72;1.25;;;26.70;99.90;;;;;;5097558;28;20195;-78
2024/01/03 05:05:14;;;;;;;4.68;1.02;;;26.70;99.90;;;;;;5113433;28;20210;-77
2024/01/03 05:07:47;;;;;;;6.10;1.30;;;26.60;99.90;;;;;;5115292;28;20567;-76
2024/01/03 05:10:17;;;;;;;5.32;1.30;;;26.60;99.90;;;;;;5113865;28;20205;-78
2024/01/03 05:12:48;;;;;;;6.80;1.27;;;26.60;99.90;;;;;;5115099;28;20225;-77
2024/01/03 05:15:19;;;;;;;6.95;1.33;;;26.70;99.90;;;;;;5121762;28;20746;-77
2024/01/03 05:17:51;;;;;;;3.63;1.00;;;26.70;99.90;;;;;;5111237;28;20665;-77
2024/01/03 05:20:22;;;;;;;4.53;1.08;;;26.70;99.90;;;;;;5114427;28;20241;-77
2024/01/03 05:22:54;;;;;;;5.68;1.33;;;26.80;99.90;;;;;;5099801;28;20195;-77
2024/01/03 05:25:25;;;;;;;6.97;1.45;;;26.80;99.90;;;;;;5102726;28;20636;-78
2024/01/03 05:27:56;;;;;;;5.80;1.48;;;26.70;99.90;;;;;;5092856;28;20710;-78
2024/01/03 05:30:26;;;;;;;3.08;0.98;;;26.80;99.90;;;;;;5092864;28;20195;-77
2024/01/03 05:32:57;;;;;;;7.93;1.30;;;26.70;99.90;;;;;;5094098;28;20681;-78
2024/01/03 05:35:28;;;;;;;2.92;0.85;;;26.70;99.90;;;;;;5112951;28;20707;-78
2024/01/03 05:38:01;;;;;;;3.78;1.13;;;26.80;99.90;;;;;;5113130;28;20207;-78
2024/01/03 05:40:31;;;;;;;5.88;1.20;;;26.80;99.90;;;;;;5098223;28;20198;-77
2024/01/03 05:43:02;;;;;;;6.28;1.50;;;26.80;99.90;;;;;;5098243;28;20206;-78
2024/01/03 05:45:33;;;;;;;11.20;1.52;;;26.90;99.90;;;;;;5111595;28;20234;-77
2024/01/03 05:48:04;;;;;;;3.80;1.00;;;27.00;99.90;;;;;;5105853;28;20195;-78
2024/01/03 05:50:34;;;;;;;7.32;1.30;;;27.00;99.90;;;;;;5098673;28;20207;-78
2024/01/03 05:53:07;;;;;;;4.93;1.00;;;27.10;99.90;;;;;;5112518;28;20191;-77
2024/01/03 05:55:38;;;;;;;9.30;1.30;;;27.10;99.90;;;;;;5108052;27;20196;-78
2024/01/03 05:58:09;;;;;;;5.88;1.40;;;27.10;99.90;;;;;;5092174;28;20493;-78
2024/01/03 06:00:39;;;;;;;7.10;1.25;;;27.20;99.90;;;;;;5102886;28;20671;-78
2024/01/03 06:03:10;;;;;;;7.68;1.10;;;27.20;99.90;;;;;;5111815;28;20261;-78
2024/01/03 06:05:41;;;;;;;7.53;1.25;;;27.20;99.90;;;;;;5111866;28;20194;-77
2024/01/03 06:08:13;;;;;;;5.90;1.10;;;27.20;99.90;;;;;;5111363;28;20657;-77
2024/01/03 06:10:44;;;;;;;6.00;1.13;;;27.20;99.90;;;;;;5113564;28;20203;-78
2024/01/03 06:13:16;;;;;;;4.53;1.10;;;27.20;99.90;;;;;;5109962;28;20284;-78
2024/01/03 06:15:47;;;;;;;7.38;1.48;;;27.20;99.90;;;;;;5098275;28;20199;-78
2024/01/03 06:18:18;;;;;;;4.90;1.13;;;27.20;99.90;;;;;;5108086;28;20237;-79
2024/01/03 06:20:49;;;;;;;9.23;1.60;;;27.20;99.90;;;;;;5112571;28;20209;-79
2024/01/03 06:23:21;;;;;;;4.28;1.30;;;27.20;99.90;;;;;;5112590;28;20237;-79
2024/01/03 06:25:52;;;;;;;6.70;1.30;;;27.20;99.90;;;;;;5112439;28;20213;-79
2024/01/03 06:28:25;;;;;;;5.63;1.20;;;27.20;99.90;;;;;;5106965;28;20556;-79
2024/01/03 06:30:57;;;;;;;5.43;1.40;;;27.30;99.90;;;;;;5097740;28;20186;-79
2024/01/03 06:33:27;;;;;;;4.97;1.15;;;27.20;99.90;;;;;;5112908;28;20680;-79
2024/01/03 06:36:00;;;;;;;5.38;1.35;;;27.20;99.90;;;;;;5099946;28;20202;-79
2024/01/03 06:38:32;;;;;;;5.45;1.45;;;27.20;99.90;;;;;;5092112;28;20208;-79
2024/01/03 06:41:03;;;;;;;7.43;1.50;;;27.20;99.90;;;;;;5098113;28;20659;-79
2024/01/03 06:43:34;;;;;;;6.85;1.55;;;27.20;99.90;;;;;;5111760;28;20200;-79
2024/01/03 06:46:05;;;;;;;5.38;1.20;;;27.10;99.90;;;;;;5111830;28;20718;-78
2024/01/03 06:48:35;;;;;;;6.57;1.27;;;27.20;99.90;;;;;;5098237;27;20190;-78
2024/01/03 06:51:06;;;;;;;4.57;1.25;;;27.20;99.90;;;;;;5090258;28;20195;-79
2024/01/03 06:53:41;;;;;;;10.50;1.70;;;27.20;99.90;;;;;;5100705;28;20670;-78
2024/01/03 06:56:11;;;;;;;5.82;1.20;;;27.10;99.90;;;;;;5106739;28;20187;-79
2024/01/03 06:58:42;;;;;;;7.03;1.42;;;27.20;99.90;;;;;;5106271;27;20253;-78
2024/01/03 07:01:13;;;;;;;5.35;1.27;;;27.10;99.90;;;;;;5122265;27;20712;-78
2024/01/03 07:03:44;;;;;;;6.72;1.35;;;27.20;99.90;;;;;;5113088;27;20186;-78
2024/01/03 07:06:15;;;;;;;6.82;1.30;;;27.20;99.90;;;;;;5108022;27;20229;-84
2024/01/03 07:08:49;;;;;;;7.40;1.42;;;27.20;99.90;;;;;;5104837;28;20233;-81
2024/01/03 07:11:19;;;;;;;6.22;1.30;;;27.20;99.90;;;;;;5107327;28;20195;-81
2024/01/03 07:13:50;;;;;;;5.38;1.35;;;27.20;99.90;;;;;;5094813;28;20211;-81
2024/01/03 07:16:21;;;;;;;6.18;1.25;;;27.10;99.90;;;;;;5117583;28;20199;-82
2024/01/03 07:18:52;;;;;;;6.20;1.40;;;27.10;99.90;;;;;;5105942;28;20228;-80
2024/01/03 07:21:25;;;;;;;8.10;2.25;;;27.10;99.90;;;;;;5117125;28;20190;-81
2024/01/03 07:23:57;;;;;;;7.60;2.28;;;27.10;99.90;;;;;;5105100;28;20191;-80
2024/01/03 07:26:28;;;;;;;11.57;2.40;;;27.00;99.90;;;;;;5102653;28;20218;-81
2024/01/03 07:28:59;;;;;;;8.35;2.67;;;27.00;99.90;;;;;;5097310;28;20203;-80
2024/01/03 07:31:30;;;;;;;6.03;2.05;;;27.10;99.90;;;;;;5105735;28;20198;-81
2024/01/03 07:34:00;;;;;;;4.63;1.40;;;27.10;99.90;;;;;;5105826;28;20566;-81
2024/01/03 07:36:31;;;;;;;4.78;1.23;;;27.10;99.90;;;;;;5106260;28;20727;-81
2024/01/03 07:39:05;;;;;;;3.97;1.30;;;27.00;99.90;;;;;;5102439;28;20715;-80
2024/01/03 07:41:36;;;;;;;5.93;1.40;;;27.00;99.90;;;;;;5105482;28;20202;-80
2024/01/03 07:44:06;;;;;;;9.07;1.88;;;27.00;99.90;;;;;;5108813;27;20241;-80
2024/01/03 07:46:37;;;;;;;4.57;1.63;;;27.00;99.90;;;;;;5103350;27;20240;-81
2024/01/03 07:49:08;;;;;;;7.32;1.92;;;26.90;99.90;;;;;;5102789;28;20279;-81
2024/01/03 07:51:39;;;;;;;7.45;1.92;;;26.90;99.90;;;;;;5106714;28;20195;-80
2024/01/03 07:54:12;;;;;;;6.68;1.75;;;26.90;99.90;;;;;;5109672;28;20284;-81
2024/01/03 07:56:43;;;;;;;10.27;2.20;;;26.90;99.90;;;;;;5118360;27;20293;-79
2024/01/03 07:59:13;;;;;;;7.13;1.80;;;27.00;99.90;;;;;;5105551;27;20194;-79
2024/01/03 08:01:44;;;;;;;6.60;1.65;;;26.90;99.90;;;;;;5103314;28;20202;-79
2024/01/03 08:04:16;;;;;;;7.10;1.60;;;26.90;99.90;;;;;;5100648;28;20198;-80
2024/01/03 08:06:47;;;;;;;5.97;1.35;;;26.80;99.90;;;;;;5101932;28;20233;-79
2024/01/03 08:09:19;;;;;;;5.15;1.33;;;26.80;99.90;;;;;;5113622;28;20197;-79
2024/01/03 08:11:50;;;;;;;4.90;1.20;;;26.80;99.90;;;;;;5111253;28;20198;-79
2024/01/03 08:14:21;;;;;;;7.57;1.35;;;26.80;99.90;;;;;;5107795;28;20531;-79
2024/01/03 08:16:52;;;;;;;6.47;1.55;;;26.70;99.90;;;;;;5106206;28;20264;-80
2024/01/03 08:19:22;;;;;;;8.23;1.38;;;26.70;99.90;;;;;;5110008;28;20237;-79
2024/01/03 08:21:54;;;;;;;7.47;1.65;;;26.60;99.90;;;;;;5109524;28;20201;-80
2024/01/03 08:24:26;;;;;;;7.63;1.70;;;26.60;99.90;;;;;;5111064;28;20541;-81
2024/01/03 08:26:57;;;;;;;6.20;1.50;;;26.50;99.90;;;;;;5114926;28;20254;-80
2024/01/03 08:29:29;;;;;;;8.75;1.48;;;26.60;99.90;;;;;;5096263;28;20278;-81
2024/01/03 08:32:00;;;;;;;7.35;1.40;;;26.60;99.90;;;;;;5105262;28;20730;-80
2024/01/03 08:34:30;;;;;;;6.18;1.50;;;26.50;99.90;;;;;;5126126;27;20202;-80
2024/01/03 08:37:01;;;;;;;5.57;1.52;;;26.50;99.90;;;;;;5114622;28;20194;-79
2024/01/03 08:39:34;;;;;;;7.47;1.58;;;26.40;99.90;;;;;;5114054;28;20194;-79
2024/01/03 08:42:04;;;;;;;7.15;1.88;;;26.40;99.90;;;;;;5099421;28;20202;-81
2024/01/03 08:44:35;;;;;;;4.97;1.60;;;26.40;99.90;;;;;;5123257;27;20224;-79
2024/01/03 08:47:07;;;;;;;7.03;1.73;;;26.40;99.90;;;;;;5110526;28;20218;-79
2024/01/03 08:49:38;;;;;;;5.30;1.35;;;26.30;99.90;;;;;;5102863;28;20308;-80
2024/01/03 08:52:09;;;;;;;8.32;1.75;;;26.30;99.90;;;;;;5107798;28;21947;-79
2024/01/03 08:54:42;;;;;;;7.03;1.73;;;26.30;99.90;;;;;;5110657;28;20710;-80
2024/01/03 08:57:19;;;;;;;7.78;1.40;;;26.30;99.90;;;;;;5107058;27;20516;-79
2024/01/03 08:59:50;;;;;;;7.10;1.60;;;26.30;99.90;;;;;;5112963;27;20687;-78
2024/01/03 09:02:20;;;;;;;5.22;1.48;;;26.20;99.90;;;;;;5112096;28;20664;-79
2024/01/03 09:04:53;;;;;;;5.22;1.42;;;26.20;99.90;;;;;;5110250;28;20630;-80
2024/01/03 09:07:24;;;;;;;8.32;1.50;;;26.20;99.90;;;;;;5098879;28;20267;-79
2024/01/03 09:09:56;;;;;;;5.90;1.35;;;26.10;99.90;;;;;;5098459;28;20190;-79
2024/01/03 09:12:27;;;;;;;7.28;1.40;;;26.10;99.90;;;;;;5123591;27;20198;-80
2024/01/03 09:14:58;;;;;;;7.78;1.80;;;26.10;99.90;;;;;;5118037;28;20281;-79
2024/01/03 09:17:29;;;;;;;7.38;1.73;;;26.10;99.90;;;;;;5112417;28;20205;-78
2024/01/03 09:19:59;;;;;;;10.70;2.00;;;26.10;99.90;;;;;;5099781;28;20425;-79
2024/01/03 09:22:30;;;;;;;9.88;1.95;;;26.00;99.90;;;;;;5113847;28;20229;-79
2024/01/03 09:25:03;;;;;;;7.75;1.98;;;26.00;99.90;;;;;;5115094;27;20616;-79
2024/01/03 09:27:34;;;;;;;7.13;1.88;;;25.90;99.90;;;;;;5113628;28;20210;-79
2024/01/03 09:30:05;;;;;;;8.85;1.83;;;25.90;99.90;;;;;;5093480;28;20201;-79
2024/01/03 09:32:36;;;;;;;8.55;1.50;;;25.90;99.90;;;;;;5108928;27;20274;-77
2024/01/03 09:35:07;;;;;;;9.30;1.65;;;25.90;99.90;;;;;;5111070;28;20201;-79
2024/01/03 09:37:38;;;;;;;8.70;1.50;;;25.80;99.90;;;;;;5101712;28;20205;-80
2024/01/03 09:40:12;;;;;;;6.35;1.60;;;25.80;99.90;;;;;;5113146;28;20204;-79
2024/01/03 09:42:43;;;;;;;10.43;1.80;;;25.80;99.90;;;;;;5113286;27;20202;-79
2024/01/03 09:45:14;;;;;;;8.32;1.60;;;25.70;99.90;;;;;;5113255;28;20198;-79
2024/01/03 09:47:46;;;;;;;8.70;1.60;;;25.70;99.90;;;;;;5111123;27;20218;-79
2024/01/03 09:50:18;;;;;;;9.45;2.05;;;25.60;99.90;;;;;;5111775;28;20199;-79
2024/01/03 09:52:50;;;;;;;11.40;2.10;;;25.70;99.90;;;;;;5112552;28;20202;-79
2024/01/03 09:55:23;;;;;;;6.72;1.42;;;25.70;99.90;;;;;;5110702;28;20202;-79
2024/01/03 09:57:54;;;;;;;9.20;1.80;;;25.70;99.90;;;;;;5106549;28;20294;-79
2024/01/03 10:00:29;;;;;;;9.60;1.80;;;25.70;99.90;;;;;;5079842;28;21044;-79
2024/01/03 10:03:05;;;;;;;8.77;1.80;;;25.70;99.90;;;;;;5089896;28;20226;-80
2024/01/03 10:05:36;;;;;;;10.52;1.90;;;25.70;99.90;;;;;;5097844;27;20672;-80
2024/01/03 10:08:17;;;;;;;7.22;1.80;;;25.60;99.90;;;;;;5091369;28;20249;-79
2024/01/03 10:10:50;;;;;;;8.15;1.63;;;25.70;99.90;;;;;;5095377;28;20218;-80
2024/01/03 10:13:23;;;;;;;9.55;1.60;;;25.70;99.90;;;;;;5108097;27;20233;-80
2024/01/03 10:15:54;;;;;;;8.18;1.77;;;25.70;99.90;;;;;;5093487;27;20211;-79
2024/01/03 10:18:26;;;;;;;7.47;1.48;;;25.70;99.90;;;;;;5098962;28;20309;-81
2024/01/03 10:20:57;;;;;;;5.63;1.30;;;25.70;99.90;;;;;;5094140;28;20223;-79
2024/01/03 10:23:28;;;;;;;8.85;1.83;;;25.70;99.90;;;;;;5093880;28;20293;-78
2024/01/03 10:26:01;;;;;;;6.00;1.50;;;25.80;99.90;;;;;;5103462;28;20294;-79
2024/01/03 10:28:31;;;;;;;7.53;1.45;;;25.70;99.90;;;;;;5113474;28;20744;-80
2024/01/03 10:31:07;;;;;;;8.13;1.55;;;25.70;99.90;;;;;;5103884;28;20341;-80
2024/01/03 10:33:37;;;;;;;8.82;2.08;;;25.70;99.90;;;;;;5138724;27;20285;-79
2024/01/03 10:36:13;;;;;;;7.97;1.60;;;25.70;99.90;;;;;;5106299;27;20237;-81
2024/01/03 10:38:45;;;;;;;9.23;1.67;;;25.70;99.90;;;;;;5099738;28;20206;-80
2024/01/03 10:41:18;;;;;;;8.77;1.73;;;25.70;99.90;;;;;;5111981;28;20203;-82
2024/01/03 10:43:50;;;;;;;7.55;1.52;;;25.70;99.90;;;;;;5105453;28;20215;-81
2024/01/03 10:46:23;;;;;;;8.65;1.75;;;25.70;99.90;;;;;;5105860;28;20305;-80
2024/01/03 10:48:54;;;;;;;5.63;1.42;;;25.70;99.90;;;;;;5112904;27;20228;-81
2024/01/03 10:51:28;;;;;;;6.70;2.00;;;25.70;99.90;;;;;;5093551;28;20290;-80
2024/01/03 10:54:00;;;;;;;5.90;1.42;;;25.80;99.90;;;;;;5109728;28;20345;-80
2024/01/03 10:56:37;;;;;;;6.15;1.60;;;25.80;99.90;;;;;;5097080;28;20225;-81
2024/01/03 10:59:09;;;;;;;10.02;1.85;;;25.80;99.90;;;;;;5100492;28;20187;-81
2024/01/03 11:01:50;;;;;;;9.32;1.75;;;25.80;99.90;;;;;;5099235;28;20215;-82
2024/01/03 11:04:28;;;;;;;10.30;1.77;;;25.80;99.90;;;;;;5107786;28;20210;-81
2024/01/03 11:07:05;;;;;;;9.82;2.00;;;25.70;99.90;;;;;;5111034;27;20195;-81
2024/01/03 11:09:36;;;;;;;5.90;1.77;;;25.70;99.90;;;;;;5097521;28;20277;-80
2024/01/03 11:12:13;;;;;;;6.22;1.80;;;25.70;99.90;;;;;;5111935;28;20198;-80
2024/01/03 11:14:44;;;;;;;8.63;1.70;;;25.60;99.90;;;;;;5110716;28;20273;-80
2024/01/03 11:17:15;;;;;;;7.20;1.70;;;25.60;99.90;;;;;;5109169;28;20198;-81
2024/01/03 11:19:46;;;;;;;10.32;2.08;;;25.60;99.90;;;;;;5111258;28;20226;-81
2024/01/03 11:22:17;;;;;;;6.97;1.55;;;25.60;99.90;;;;;;5110108;28;20222;-82
2024/01/03 11:24:46;;;;;;;4.78;1.25;;;25.60;99.90;;;;;;5110063;27;20240;-80
2024/01/03 11:27:30;;;;;;;6.80;1.67;;;25.60;99.90;;;;;;5106985;28;20198;-83
2024/01/03 11:30:01;;;;;;;6.95;1.60;;;25.60;99.90;;;;;;5109189;28;20569;-81
2024/01/03 11:32:38;;;;;;;9.52;1.73;;;25.70;99.90;;;;;;5118422;28;20218;-80
2024/01/03 11:35:12;;;;;;;7.38;1.50;;;25.60;99.90;;;;;;5112663;28;20214;-81
2024/01/03 11:37:47;;;;;;;9.20;1.80;;;25.60;99.90;;;;;;5118107;28;20580;-80
2024/01/03 11:40:27;;;;;;;11.73;1.98;;;25.60;99.90;;;;;;5104294;28;20202;-80
2024/01/03 11:43:03;;;;;;;7.65;1.83;;;25.60;99.90;;;;;;5111369;28;20200;-80
2024/01/03 11:45:35;;;;;;;9.25;2.25;;;25.60;99.90;;;;;;5110082;28;20203;-80
2024/01/03 11:48:06;;;;;;;7.03;1.70;;;25.60;99.90;;;;;;5103725;28;20313;-80
2024/01/03 11:50:36;;;;;;;6.90;1.48;;;25.60;99.90;;;;;;5090841;28;20209;-80
2024/01/03 11:53:13;;;;;;;9.90;1.67;;;25.60;99.90;;;;;;5107486;28;20198;-80
2024/01/03 11:55:53;;;;;;;8.18;1.85;;;25.60;99.90;;;;;;5094454;28;20195;-80
2024/01/03 11:58:28;;;;;;;8.50;1.83;;;25.50;99.90;;;;;;5099071;28;20212;-81
2024/01/03 12:01:11;;;;;;;9.63;1.90;;;25.50;99.90;;;;;;5110636;28;20205;-81
2024/01/03 12:03:42;;;;;;;8.00;1.60;;;25.50;99.90;;;;;;5111050;28;20217;-81
2024/01/03 12:06:13;;;;;;;7.30;1.70;;;25.50;99.90;;;;;;5110737;28;20702;-81
2024/01/03 12:08:43;;;;;;;6.93;1.58;;;25.50;99.90;;;;;;5107518;28;20236;-81
2024/01/03 12:11:14;;;;;;;8.85;1.63;;;25.50;99.90;;;;;;5107949;28;20237;-81
2024/01/03 12:13:50;;;;;;;9.07;1.55;;;25.50;99.90;;;;;;5109830;28;20342;-82
2024/01/03 12:16:21;;;;;;;8.35;1.50;;;25.50;99.90;;;;;;5110747;28;20698;-80
2024/01/03 12:18:52;;;;;;;6.38;1.58;;;25.50;99.90;;;;;;5110546;28;20230;-81
2024/01/03 12:21:24;;;;;;;7.70;1.92;;;25.50;99.90;;;;;;5107153;28;20214;-81
2024/01/03 12:23:59;;;;;;;8.65;1.80;;;25.50;99.90;;;;;;5095655;28;20223;-82
2024/01/03 12:26:33;;;;;;;7.30;1.67;;;25.50;99.90;;;;;;5093790;28;20226;-83
2024/01/03 12:29:07;;;;;;;7.47;1.60;;;25.40;99.90;;;;;;5096094;28;20283;-80
2024/01/03 12:31:37;;;;;;;7.22;1.55;;;25.40;99.90;;;;;;5102390;28;20748;-82
2024/01/03 12:34:09;;;;;;;8.18;1.83;;;25.40;99.90;;;;;;5091326;28;20249;-81
2024/01/03 12:36:40;;;;;;;6.65;1.50;;;25.40;99.90;;;;;;5113291;28;20211;-81
2024/01/03 12:39:10;;;;;;;9.90;1.75;;;25.40;99.90;;;;;;5115250;28;20210;-81
2024/01/03 12:41:41;;;;;;;10.50;1.77;;;25.40;99.90;;;;;;5110510;28;20788;-81
2024/01/03 12:44:14;;;;;;;7.05;1.65;;;25.40;99.90;;;;;;5108807;28;20221;-81
2024/01/03 12:46:45;;;;;;;6.65;1.70;;;25.40;99.90;;;;;;5118826;28;20234;-81
2024/01/03 12:49:15;;;;;;;6.05;1.52;;;25.40;99.90;;;;;;5115197;28;20236;-81
2024/01/03 12:51:46;;;;;;;7.30;1.75;;;25.40;99.90;;;;;;5110397;28;20201;-80
2024/01/03 12:54:17;;;;;;;7.57;1.60;;;25.40;99.90;;;;;;5100105;28;20298;-80
2024/01/03 12:56:48;;;;;;;6.90;1.58;;;25.40;99.90;;;;;;5104096;28;20566;-81
2024/01/03 12:59:20;;;;;;;8.48;1.73;;;25.40;99.90;;;;;;5098646;28;20195;-81
2024/01/03 13:01:51;;;;;;;7.32;1.73;;;25.30;99.90;;;;;;5109264;28;20207;-81
2024/01/03 13:04:22;;;;;;;7.32;1.73;;;25.30;99.90;;;;;;5109679;28;20194;-81
2024/01/03 13:06:54;;;;;;;7.90;1.90;;;25.30;99.90;;;;;;5108043;28;20199;-80
2024/01/03 13:09:25;;;;;;;7.57;1.75;;;25.30;99.90;;;;;;5109575;28;20230;-81